Yazd Shahid Sadooghi Airport
OIYY : now visible

Airfield :











YOU CAN JOIN US ON...

 
LOGIN :

Register | Disclaimer

   EN    FR    IT 

 









Legend :    VFR   Marginal VFR   IFR   Intensive IFR   Very Intensive IFR
Visi :
Ceiling :
>= 8 km
>= 3000ft
5 to 8 km
1000 to 3000 ft
1500m to 5 km
500 to 1000 ft
800 to 1500m
200 to 500 ft
< 800m
< 200 ft
Symbols :   Thunderstorms  Fog  Heavy snow  Heavy precipitations  Wind > 20 kt






- Airport Elevation : 4054 ft
- IATA code : AZD


OIYY - Yazd Shahid Sadooghi

CURRENT METAR :
  • 210630Z 32008KT CAVOK 29/M02 Q1019

EXPIRED METARs :
  • 210600Z 33008KT CAVOK 28/M03 Q1019
  • 210530Z 30008KT CAVOK 27/M03 Q1019
  • 210500Z 29006KT CAVOK 26/M03 Q1019
  • 210430Z 29006KT CAVOK 24/M03 Q1018
  • 210400Z 28004KT CAVOK 22/M04 Q1018
  • 210330Z 21002KT CAVOK 20/M05 Q1018

Expired Forecast.
OIIX FIR / Asia



MET'MAP, your aeronautical weather chart ! - Copyright ORBIFLY December 2007 - Disclaimer

ORBIFLY MET'MAP TEAM :

Programming & Development : Alexandra Zaïnal
Concept & original design : Baudouin d'Aumeries
Assistance for programming : Marc-Olivier Méhu
Technical & hardware support : Manuel Goepfert

Contact : metmap@orbifly.com




SOURCES & CREDITS :

   NOAA       Earth
Advisory